createdAt,value
2018-08-24T00:01:48.934Z,25.50
2018-08-24T00:04:16.430Z,25.70
2018-08-24T00:06:43.888Z,25.70
2018-08-24T00:09:13.981Z,25.70
2018-08-24T00:11:41.628Z,25.60
2018-08-24T00:14:10.144Z,25.70
2018-08-24T00:16:38.748Z,25.60
2018-08-24T00:19:14.906Z,25.60
2018-08-24T00:21:42.968Z,25.60
2018-08-24T00:24:11.246Z,25.70
2018-08-24T00:26:38.724Z,24.30
2018-08-24T00:29:06.868Z,25.60
2018-08-24T00:31:35.021Z,25.70
2018-08-24T00:34:02.682Z,25.70
2018-08-24T00:36:30.245Z,24.50
2018-08-24T00:38:58.127Z,25.60
2018-08-24T00:41:25.766Z,23.50
2018-08-24T00:43:53.270Z,25.60
2018-08-24T00:46:21.610Z,25.60
2018-08-24T00:48:49.657Z,25.60
2018-08-24T00:51:17.178Z,25.70
2018-08-24T00:53:44.690Z,25.60
2018-08-24T00:56:12.456Z,25.70
2018-08-24T00:58:40.043Z,25.60
2018-08-24T01:01:08.580Z,25.60
2018-08-24T01:03:36.479Z,25.40
2018-08-24T01:06:04.092Z,25.50
2018-08-24T01:08:31.616Z,25.60
2018-08-24T01:10:59.084Z,25.60
2018-08-24T01:13:26.600Z,25.50
2018-08-24T01:15:59.054Z,24.30
2018-08-24T01:18:32.300Z,25.50
2018-08-24T01:20:59.970Z,25.10
2018-08-24T01:23:28.786Z,25.40
2018-08-24T01:25:56.379Z,25.50
2018-08-24T01:28:25.450Z,25.20
2018-08-24T01:30:53.034Z,25.40
2018-08-24T01:33:20.802Z,25.40
2018-08-24T01:35:48.321Z,25.40
2018-08-24T01:38:15.881Z,25.40
2018-08-24T01:40:43.364Z,25.40
2018-08-24T01:43:11.899Z,25.20
2018-08-24T01:45:39.386Z,25.30
2018-08-24T01:48:13.641Z,25.40
2018-08-24T01:50:41.191Z,23.40
2018-08-24T01:53:08.697Z,25.30
2018-08-24T01:55:36.203Z,25.30
2018-08-24T01:58:04.591Z,25.20
2018-08-24T02:00:32.187Z,25.30
2018-08-24T02:02:59.700Z,25.30
2018-08-24T02:05:27.211Z,25.30
2018-08-24T02:07:54.723Z,25.20
2018-08-24T02:10:27.165Z,23.60
2018-08-24T02:13:00.407Z,25.20
2018-08-24T02:15:27.968Z,25.20
2018-08-24T02:18:01.231Z,25.20
2018-08-24T02:20:34.247Z,25.20
2018-08-24T02:23:09.304Z,23.20
2018-08-24T02:25:37.726Z,25.10
2018-08-24T02:28:05.591Z,25.10
2018-08-24T02:30:33.143Z,25.10
2018-08-24T02:33:00.863Z,25.10
2018-08-24T02:35:28.321Z,25.10
2018-08-24T02:37:55.799Z,25.00
2018-08-24T02:40:23.288Z,25.10
2018-08-24T02:42:50.758Z,25.00
2018-08-24T02:45:18.762Z,25.00
2018-08-24T02:47:46.372Z,25.00
2018-08-24T02:50:14.016Z,24.90
2018-08-24T02:52:41.539Z,24.90
2018-08-24T02:55:09.047Z,24.90
2018-08-24T02:57:36.550Z,24.90
2018-08-24T03:00:04.248Z,24.90
2018-08-24T03:02:31.704Z,24.90
2018-08-24T03:04:59.291Z,24.80
2018-08-24T03:07:26.787Z,24.80
2018-08-24T03:09:54.446Z,24.80
2018-08-24T03:12:22.119Z,24.80
2018-08-24T03:14:49.912Z,24.80
2018-08-24T03:17:23.274Z,24.80
2018-08-24T03:19:50.846Z,24.40
2018-08-24T03:22:18.462Z,24.80
2018-08-24T03:24:47.014Z,24.70
2018-08-24T03:27:14.602Z,24.70
2018-08-24T03:29:42.264Z,24.60
2018-08-24T03:32:10.535Z,24.70
2018-08-24T03:34:37.975Z,24.70
2018-08-24T03:37:05.904Z,24.70
2018-08-24T03:39:33.444Z,24.70
2018-08-24T03:42:01.068Z,24.70
2018-08-24T03:44:28.555Z,24.60
2018-08-24T03:46:56.122Z,24.60
2018-08-24T03:49:24.571Z,24.50
2018-08-24T03:51:52.027Z,23.50
2018-08-24T03:54:20.370Z,24.50
2018-08-24T03:56:56.810Z,24.60
2018-08-24T03:59:24.948Z,24.50
2018-08-24T04:01:53.696Z,24.40
2018-08-24T04:04:21.222Z,24.50
2018-08-24T04:06:48.853Z,24.50
2018-08-24T04:09:16.351Z,24.60
2018-08-24T04:11:44.289Z,24.60
2018-08-24T04:14:12.111Z,24.50
2018-08-24T04:16:45.226Z,24.40
2018-08-24T04:19:17.310Z,24.50
2018-08-24T04:21:46.027Z,24.50
2018-08-24T04:24:13.559Z,24.40
2018-08-24T04:26:41.341Z,24.50
2018-08-24T04:29:08.891Z,24.50
2018-08-24T04:31:36.481Z,24.50
2018-08-24T04:34:04.700Z,24.50
2018-08-24T04:36:39.749Z,24.40
2018-08-24T04:39:08.885Z,24.40
2018-08-24T04:41:36.520Z,24.40
2018-08-24T04:44:04.521Z,24.40
2018-08-24T04:46:32.469Z,24.40
2018-08-24T04:48:59.973Z,24.20
2018-08-24T04:51:28.002Z,24.40
2018-08-24T04:53:55.623Z,24.30
2018-08-24T04:56:23.163Z,24.30
2018-08-24T04:58:50.808Z,24.20
2018-08-24T05:01:18.378Z,24.30
2018-08-24T05:03:45.899Z,24.30
2018-08-24T05:06:13.433Z,24.20
2018-08-24T05:08:40.912Z,24.30
2018-08-24T05:11:08.438Z,24.20
2018-08-24T05:13:36.283Z,24.20
2018-08-24T05:16:03.940Z,24.10
2018-08-24T05:18:31.568Z,24.20
2018-08-24T05:20:59.129Z,24.10
2018-08-24T05:23:26.606Z,24.10
2018-08-24T05:25:54.214Z,24.00
2018-08-24T05:28:21.673Z,24.00
2018-08-24T05:30:49.207Z,24.00
2018-08-24T05:33:16.740Z,23.00
2018-08-24T05:35:44.362Z,24.00
2018-08-24T05:38:11.812Z,24.00
2018-08-24T05:40:39.456Z,23.90
2018-08-24T05:43:07.068Z,24.00
2018-08-24T05:45:34.711Z,24.10
2018-08-24T05:48:02.266Z,23.30
2018-08-24T05:50:30.854Z,24.10
2018-08-24T05:52:58.590Z,24.10
2018-08-24T05:55:26.186Z,24.10
2018-08-24T05:57:53.721Z,21.90
2018-08-24T06:00:25.795Z,24.20
2018-08-24T06:02:53.374Z,24.10
2018-08-24T06:05:20.870Z,24.10
2018-08-24T06:07:48.364Z,24.30
2018-08-24T06:10:15.899Z,24.30
2018-08-24T06:12:43.461Z,23.60
2018-08-24T06:15:11.052Z,24.40
2018-08-24T06:17:44.292Z,24.40
2018-08-24T06:20:11.886Z,24.40
2018-08-24T06:22:39.663Z,24.50
2018-08-24T06:25:07.225Z,24.60
2018-08-24T06:27:34.743Z,24.70
2018-08-24T06:30:02.243Z,24.60
2018-08-24T06:32:29.921Z,24.80
2018-08-24T06:34:57.514Z,24.70
2018-08-24T06:37:25.036Z,28.20
2018-08-24T06:39:52.498Z,25.00
2018-08-24T06:42:20.881Z,25.10
2018-08-24T06:44:48.464Z,25.00
2018-08-24T06:47:15.995Z,25.20
2018-08-24T06:49:43.695Z,25.30
2018-08-24T06:52:11.216Z,25.30
2018-08-24T06:54:38.712Z,25.30
2018-08-24T06:57:06.215Z,25.30
2018-08-24T06:59:33.802Z,25.30
2018-08-24T07:02:01.323Z,25.40
2018-08-24T07:04:28.875Z,25.40
2018-08-24T07:06:56.379Z,25.40
2018-08-24T07:09:23.886Z,25.40
2018-08-24T07:11:51.401Z,25.40
2018-08-24T07:14:18.966Z,25.40
2018-08-24T07:16:46.439Z,25.40
2018-08-24T07:19:13.950Z,26.50
2018-08-24T07:21:41.500Z,25.40
2018-08-24T07:24:09.062Z,23.10
2018-08-24T07:26:36.552Z,25.30
2018-08-24T07:29:04.319Z,25.50
2018-08-24T07:31:31.809Z,25.60
2018-08-24T07:33:59.331Z,25.60
2018-08-24T07:36:26.875Z,25.70
2018-08-24T07:38:54.491Z,25.50
2018-08-24T07:41:22.116Z,25.70
2018-08-24T07:43:49.607Z,25.70
2018-08-24T07:46:17.122Z,26.30
2018-08-24T07:48:44.653Z,25.40
2018-08-24T07:51:12.164Z,25.90
2018-08-24T07:53:39.711Z,26.00
2018-08-24T07:56:07.219Z,25.90
2018-08-24T07:58:34.802Z,26.10
2018-08-24T08:01:02.357Z,26.10
2018-08-24T08:03:29.893Z,26.10
2018-08-24T08:05:57.396Z,26.30
2018-08-24T08:08:24.968Z,26.10
2018-08-24T08:10:52.517Z,26.20
2018-08-24T08:13:20.014Z,26.10
2018-08-24T08:15:48.356Z,26.20
2018-08-24T08:18:16.082Z,26.20
2018-08-24T08:20:43.532Z,26.20
2018-08-24T08:23:11.098Z,26.20
2018-08-24T08:25:38.614Z,26.20
2018-08-24T08:28:06.129Z,26.20
2018-08-24T08:30:33.667Z,26.30
2018-08-24T08:33:01.251Z,26.30
2018-08-24T08:35:28.772Z,26.30
2018-08-24T08:37:56.290Z,27.50
2018-08-24T08:40:23.795Z,26.50
2018-08-24T08:42:51.315Z,26.50
2018-08-24T08:45:18.880Z,26.50
2018-08-24T08:47:46.485Z,26.60
2018-08-24T08:50:13.994Z,26.60
2018-08-24T08:52:43.218Z,26.70
2018-08-24T08:55:10.763Z,24.60
2018-08-24T08:57:38.264Z,26.10
2018-08-24T09:00:06.252Z,26.60
2018-08-24T09:02:33.813Z,26.80
2018-08-24T09:05:01.436Z,26.90
2018-08-24T09:07:28.957Z,26.80
2018-08-24T09:09:56.478Z,26.90
2018-08-24T09:12:24.024Z,26.80
2018-08-24T09:14:51.541Z,24.40
2018-08-24T09:17:24.668Z,26.80
2018-08-24T09:19:57.790Z,26.80
2018-08-24T09:22:31.983Z,26.90
2018-08-24T09:25:04.997Z,28.40
2018-08-24T09:27:36.341Z,24.90
2018-08-24T09:30:05.067Z,26.80
2018-08-24T09:32:32.628Z,26.90
2018-08-24T09:35:00.145Z,27.00
2018-08-24T09:37:33.333Z,26.70
2018-08-24T09:40:00.932Z,27.00
2018-08-24T09:42:28.357Z,24.70
2018-08-24T09:44:55.920Z,27.10
2018-08-24T09:47:29.212Z,26.90
2018-08-24T09:50:03.936Z,27.10
2018-08-24T09:52:31.563Z,27.10
2018-08-24T09:54:59.012Z,27.10
2018-08-24T09:57:26.474Z,27.10
2018-08-24T09:59:54.004Z,26.90
2018-08-24T10:02:23.126Z,26.90
2018-08-24T10:04:56.213Z,26.90
2018-08-24T10:07:30.618Z,26.90
2018-08-24T10:09:58.149Z,25.60
2018-08-24T10:12:25.579Z,26.70
2018-08-24T10:14:53.239Z,26.70
2018-08-24T10:17:24.956Z,26.70
2018-08-24T10:19:52.473Z,26.50
2018-08-24T10:22:20.014Z,26.50
2018-08-24T10:24:47.535Z,26.40
2018-08-24T10:27:15.087Z,26.30
2018-08-24T10:29:42.853Z,26.30
2018-08-24T10:32:10.363Z,27.60
2018-08-24T10:34:37.991Z,26.10
2018-08-24T10:37:05.576Z,26.10
2018-08-24T10:39:33.063Z,26.10
2018-08-24T10:42:00.530Z,26.10
2018-08-24T10:44:28.020Z,26.10
2018-08-24T10:46:55.466Z,26.10
2018-08-24T10:49:23.156Z,24.60
2018-08-24T10:51:50.596Z,26.10
2018-08-24T10:54:18.034Z,26.10
2018-08-24T10:56:45.542Z,26.10
2018-08-24T10:59:12.996Z,26.00
2018-08-24T11:01:40.505Z,26.00
2018-08-24T11:04:08.042Z,25.90
2018-08-24T11:06:35.496Z,25.90
2018-08-24T11:09:04.368Z,25.70
2018-08-24T11:11:31.840Z,25.70
2018-08-24T11:13:59.441Z,25.50
2018-08-24T11:16:26.947Z,25.50
2018-08-24T11:18:54.506Z,25.30
2018-08-24T11:21:21.992Z,25.40
2018-08-24T11:23:49.547Z,25.40
2018-08-24T11:26:17.080Z,25.30
2018-08-24T11:28:44.600Z,25.20
2018-08-24T11:31:12.189Z,25.20
2018-08-24T11:33:39.724Z,25.10
2018-08-24T11:36:07.482Z,25.10
2018-08-24T11:38:34.820Z,25.00
2018-08-24T11:41:02.300Z,25.00
2018-08-24T11:43:29.786Z,25.10
2018-08-24T11:45:57.829Z,25.00
2018-08-24T11:48:27.276Z,24.70
2018-08-24T11:50:55.338Z,24.90
2018-08-24T11:53:22.826Z,24.90
2018-08-24T11:55:50.358Z,24.80
2018-08-24T11:58:17.905Z,24.90
2018-08-24T12:00:45.415Z,24.90
2018-08-24T12:03:12.946Z,24.90
2018-08-24T12:05:40.499Z,24.90
2018-08-24T12:08:07.990Z,24.90
2018-08-24T12:10:35.417Z,24.90
2018-08-24T12:13:02.879Z,25.00
2018-08-24T12:15:30.362Z,25.10
2018-08-24T12:17:57.869Z,25.20
2018-08-24T12:20:26.422Z,25.30
2018-08-24T12:22:53.970Z,25.50
2018-08-24T12:25:21.435Z,25.70
2018-08-24T12:27:48.882Z,26.00
2018-08-24T12:30:16.396Z,26.30
2018-08-24T12:32:43.909Z,26.20
2018-08-24T12:35:11.432Z,26.70
2018-08-24T12:37:43.573Z,27.00
2018-08-24T12:40:12.529Z,27.30
2018-08-24T12:42:40.113Z,27.50
2018-08-24T12:45:07.738Z,27.80
2018-08-24T12:47:35.217Z,27.70
2018-08-24T12:50:02.756Z,28.20
2018-08-24T12:52:30.281Z,28.40
2018-08-24T12:54:57.865Z,28.50
2018-08-24T12:57:27.789Z,28.60
2018-08-24T12:59:55.482Z,28.60
2018-08-24T13:02:23.077Z,28.70
2018-08-24T13:04:50.563Z,28.60
2018-08-24T13:07:18.073Z,28.60
2018-08-24T13:09:45.632Z,28.40
2018-08-24T13:12:13.151Z,28.50
2018-08-24T13:14:40.679Z,28.30
2018-08-24T13:17:08.175Z,28.50
2018-08-24T13:19:35.641Z,28.50
2018-08-24T13:22:03.299Z,28.40
2018-08-24T13:24:30.731Z,28.50
2018-08-24T13:26:58.325Z,28.50
2018-08-24T13:29:25.872Z,28.40
2018-08-24T13:31:53.441Z,28.50
2018-08-24T13:34:20.930Z,28.50
2018-08-24T13:36:48.490Z,28.50
2018-08-24T13:39:15.986Z,28.60
2018-08-24T13:41:43.562Z,28.60
2018-08-24T13:44:11.027Z,28.60
2018-08-24T13:46:38.495Z,28.70
2018-08-24T13:49:06.045Z,28.80
2018-08-24T13:51:33.515Z,27.20
2018-08-24T13:54:01.117Z,28.00
2018-08-24T13:56:28.622Z,29.10
2018-08-24T13:58:56.121Z,29.20
2018-08-24T14:01:24.179Z,29.30
2018-08-24T14:03:51.829Z,29.50
2018-08-24T14:06:19.372Z,29.70
2018-08-24T14:08:46.943Z,29.70
2018-08-24T14:11:14.421Z,29.80
2018-08-24T14:13:42.043Z,30.00
2018-08-24T14:16:09.557Z,30.20
2018-08-24T14:18:37.059Z,30.20
2018-08-24T14:21:04.751Z,30.20
2018-08-24T14:23:32.340Z,30.20
2018-08-24T14:25:59.904Z,30.20
2018-08-24T14:28:27.409Z,30.00
2018-08-24T14:30:54.872Z,30.00
2018-08-24T14:33:22.353Z,30.00
2018-08-24T14:35:49.892Z,29.90
2018-08-24T14:38:17.450Z,29.90
2018-08-24T14:40:44.900Z,30.00
2018-08-24T14:43:12.518Z,30.00
2018-08-24T14:45:40.150Z,30.10
2018-08-24T14:48:07.760Z,30.10
2018-08-24T14:50:35.271Z,30.10
2018-08-24T14:53:03.061Z,30.00
2018-08-24T14:55:30.612Z,29.80
2018-08-24T14:57:58.067Z,29.90
2018-08-24T15:00:26.389Z,29.80
2018-08-24T15:02:53.949Z,29.60
2018-08-24T15:05:21.603Z,29.50
2018-08-24T15:07:49.088Z,29.30
2018-08-24T15:10:16.539Z,29.10
2018-08-24T15:12:44.047Z,28.80
2018-08-24T15:15:11.578Z,28.60
2018-08-24T15:17:39.098Z,28.40
2018-08-24T15:20:07.016Z,28.20
2018-08-24T15:22:34.538Z,28.00
2018-08-24T15:25:02.094Z,27.80
2018-08-24T15:27:29.983Z,27.60
2018-08-24T15:29:57.590Z,27.50
2018-08-24T15:32:25.061Z,27.30
2018-08-24T15:34:52.556Z,27.30
2018-08-24T15:37:20.539Z,27.10
2018-08-24T15:39:48.047Z,26.90
2018-08-24T15:42:15.549Z,26.80
2018-08-24T15:44:43.374Z,26.70
2018-08-24T15:47:11.524Z,26.70
2018-08-24T15:49:39.002Z,26.70
2018-08-24T15:52:07.263Z,26.60
2018-08-24T15:54:34.763Z,26.30
2018-08-24T15:57:02.238Z,26.40
2018-08-24T15:59:31.472Z,26.40
2018-08-24T16:01:59.181Z,26.30
2018-08-24T16:04:26.818Z,26.30
2018-08-24T16:06:54.314Z,26.20
2018-08-24T16:09:23.082Z,26.10
2018-08-24T16:11:50.879Z,26.10
2018-08-24T16:14:19.641Z,26.00
2018-08-24T16:16:47.312Z,26.00
2018-08-24T16:19:14.967Z,25.90
2018-08-24T16:21:42.592Z,25.90
2018-08-24T16:24:10.249Z,25.90
2018-08-24T16:26:37.922Z,25.90
2018-08-24T16:29:05.708Z,25.90
2018-08-24T16:31:33.349Z,25.90
2018-08-24T16:34:00.854Z,25.90
2018-08-24T16:36:28.338Z,25.80
2018-08-24T16:38:55.868Z,25.80
2018-08-24T16:41:23.425Z,25.80
2018-08-24T16:43:50.960Z,27.10
2018-08-24T16:46:18.610Z,25.70
2018-08-24T16:48:46.101Z,25.10
2018-08-24T16:51:13.667Z,25.60
2018-08-24T16:53:41.186Z,25.00
2018-08-24T16:56:08.880Z,24.40
2018-08-24T16:58:36.368Z,25.50
2018-08-24T17:01:04.365Z,25.40
2018-08-24T17:03:31.873Z,25.40
2018-08-24T17:05:59.414Z,25.40
2018-08-24T17:08:27.016Z,25.30
2018-08-24T17:10:55.054Z,25.30
2018-08-24T17:13:22.712Z,25.20
2018-08-24T17:15:50.381Z,25.30
2018-08-24T17:18:17.951Z,22.40
2018-08-24T17:20:45.617Z,25.10
2018-08-24T17:23:13.246Z,23.70
2018-08-24T17:25:40.831Z,25.10
2018-08-24T17:28:08.351Z,25.00
2018-08-24T17:30:36.035Z,25.10
2018-08-24T17:33:03.597Z,25.00
2018-08-24T17:35:31.143Z,25.00
2018-08-24T17:37:58.680Z,25.00
2018-08-24T17:40:26.340Z,24.80
2018-08-24T17:42:53.933Z,24.90
2018-08-24T17:45:21.515Z,24.80
2018-08-24T17:47:49.174Z,24.80
2018-08-24T17:50:16.796Z,24.80
2018-08-24T17:52:44.401Z,24.70
2018-08-24T17:55:11.907Z,24.60
2018-08-24T17:57:39.488Z,24.50
2018-08-24T18:00:07.055Z,24.50
2018-08-24T18:02:34.536Z,24.40
2018-08-24T18:05:02.070Z,24.40
2018-08-24T18:07:29.683Z,24.30
2018-08-24T18:09:57.301Z,24.40
2018-08-24T18:12:24.939Z,24.20
2018-08-24T18:14:52.638Z,24.30
2018-08-24T18:17:20.144Z,24.20
2018-08-24T18:19:47.851Z,26.90
2018-08-24T18:22:22.287Z,24.20
2018-08-24T18:24:50.163Z,24.20
2018-08-24T18:27:18.737Z,24.10
2018-08-24T18:29:46.540Z,24.00
2018-08-24T18:32:14.154Z,24.00
2018-08-24T18:34:41.741Z,24.00
2018-08-24T18:37:09.543Z,24.00
2018-08-24T18:39:37.157Z,24.00
2018-08-24T18:42:04.911Z,24.00
2018-08-24T18:44:32.595Z,23.80
2018-08-24T18:47:00.555Z,23.90
2018-08-24T18:49:28.104Z,23.80
2018-08-24T18:51:55.620Z,23.80
2018-08-24T18:54:23.368Z,23.80
2018-08-24T18:56:50.887Z,23.70
2018-08-24T18:59:18.438Z,23.70
2018-08-24T19:01:46.064Z,23.70
2018-08-24T19:04:13.608Z,23.70
2018-08-24T19:06:41.134Z,23.30
2018-08-24T19:09:09.699Z,23.60
2018-08-24T19:11:42.789Z,23.50
2018-08-24T19:14:10.471Z,23.60
2018-08-24T19:16:37.959Z,23.60
2018-08-24T19:19:11.388Z,23.50
2018-08-24T19:21:42.990Z,23.50
2018-08-24T19:24:10.850Z,23.40
2018-08-24T19:26:38.550Z,23.30
2018-08-24T19:29:11.767Z,23.40
2018-08-24T19:31:39.481Z,23.30
2018-08-24T19:34:07.348Z,23.30
2018-08-24T19:36:34.960Z,23.10
2018-08-24T19:39:04.105Z,23.10
2018-08-24T19:41:37.341Z,23.20
2018-08-24T19:44:04.942Z,23.10
2018-08-24T19:46:32.424Z,23.00
2018-08-24T19:49:05.561Z,23.00
2018-08-24T19:51:33.230Z,23.00
2018-08-24T19:54:00.757Z,23.00
2018-08-24T19:56:28.220Z,22.90
2018-08-24T19:59:03.578Z,22.50
2018-08-24T20:01:31.832Z,22.90
2018-08-24T20:03:59.330Z,22.90
2018-08-24T20:06:32.537Z,22.90
2018-08-24T20:09:05.704Z,22.80
2018-08-24T20:11:33.377Z,22.80
2018-08-24T20:14:00.897Z,22.80
2018-08-24T20:16:34.979Z,22.70
2018-08-24T20:19:02.642Z,22.70
2018-08-24T20:21:30.183Z,22.70
2018-08-24T20:23:57.956Z,22.70
2018-08-24T20:26:25.521Z,22.70
2018-08-24T20:28:52.992Z,22.50
2018-08-24T20:31:22.576Z,22.50
2018-08-24T20:33:50.140Z,22.60
2018-08-24T20:36:17.649Z,22.50
2018-08-24T20:38:45.113Z,22.40
2018-08-24T20:41:12.704Z,22.50
2018-08-24T20:43:40.305Z,22.50
2018-08-24T20:46:07.919Z,22.40
2018-08-24T20:48:35.418Z,22.40
2018-08-24T20:51:02.916Z,21.90
2018-08-24T20:53:30.429Z,22.30
2018-08-24T20:55:58.051Z,22.30
2018-08-24T20:58:25.581Z,25.80
2018-08-24T21:00:53.099Z,18.90
2018-08-24T21:03:20.663Z,22.20
2018-08-24T21:05:48.338Z,22.10
2018-08-24T21:08:15.888Z,22.20
2018-08-24T21:10:43.451Z,21.50
2018-08-24T21:13:10.982Z,22.10
2018-08-24T21:15:38.521Z,22.10
2018-08-24T21:18:06.159Z,22.10
2018-08-24T21:20:33.698Z,22.10
2018-08-24T21:23:01.271Z,22.10
2018-08-24T21:25:28.801Z,22.10
2018-08-24T21:27:56.300Z,22.10
2018-08-24T21:30:23.875Z,22.00
2018-08-24T21:32:51.520Z,21.10
2018-08-24T21:35:19.045Z,22.00
2018-08-24T21:37:47.122Z,22.00
2018-08-24T21:40:14.649Z,21.90
2018-08-24T21:42:42.149Z,23.70
2018-08-24T21:45:10.587Z,21.90
2018-08-24T21:47:38.145Z,20.40
2018-08-24T21:50:05.943Z,21.90
2018-08-24T21:52:33.466Z,21.90
2018-08-24T21:55:01.213Z,21.90
2018-08-24T21:57:28.823Z,21.80
2018-08-24T21:59:56.341Z,21.90
2018-08-24T22:02:23.871Z,21.80
2018-08-24T22:04:51.466Z,21.80
2018-08-24T22:07:18.963Z,21.80
2018-08-24T22:09:46.575Z,20.50
2018-08-24T22:12:14.071Z,21.80
2018-08-24T22:14:42.614Z,21.80
2018-08-24T22:17:10.204Z,21.80
2018-08-24T22:19:37.730Z,21.80
2018-08-24T22:22:05.254Z,21.70
2018-08-24T22:24:32.779Z,21.80
2018-08-24T22:27:00.255Z,21.70
2018-08-24T22:29:27.811Z,21.80
2018-08-24T22:31:55.318Z,21.70
2018-08-24T22:34:23.406Z,21.80
2018-08-24T22:36:51.044Z,21.70
2018-08-24T22:39:18.657Z,21.80
2018-08-24T22:41:46.101Z,20.30
2018-08-24T22:44:13.568Z,21.70
2018-08-24T22:46:41.162Z,21.80
2018-08-24T22:49:08.660Z,21.70
2018-08-24T22:51:36.120Z,21.50
2018-08-24T22:54:03.619Z,21.70
2018-08-24T22:56:31.186Z,21.70
2018-08-24T22:58:59.678Z,21.70
2018-08-24T23:01:27.211Z,21.70
2018-08-24T23:03:54.667Z,21.70
2018-08-24T23:06:22.235Z,21.70
2018-08-24T23:08:49.729Z,21.70
2018-08-24T23:11:17.202Z,21.60
2018-08-24T23:13:44.689Z,21.70
2018-08-24T23:16:12.211Z,21.60
2018-08-24T23:18:39.732Z,21.60
2018-08-24T23:21:07.263Z,22.20
2018-08-24T23:23:34.809Z,21.60
2018-08-24T23:26:02.291Z,21.60
2018-08-24T23:28:29.827Z,21.60
2018-08-24T23:30:57.328Z,21.60
2018-08-24T23:33:24.831Z,21.60
2018-08-24T23:35:52.362Z,21.60
2018-08-24T23:38:19.901Z,21.90
2018-08-24T23:40:47.457Z,21.60
2018-08-24T23:43:15.021Z,21.60
2018-08-24T23:45:42.737Z,21.50
2018-08-24T23:48:10.257Z,21.40
2018-08-24T23:50:37.814Z,21.40
2018-08-24T23:53:05.352Z,21.50
2018-08-24T23:55:32.841Z,21.40
2018-08-24T23:58:00.385Z,21.50
